Terminal Aerodrome Forecast
Issued by NWS

Home | Current Version | Previous Version | Text Only | Print | Product List | Glossary On
Versions: 1 2 3 4 5 6 7 8 9 10 11 12 13
000
FTUS45 KPSR 012320
TAFBLH
TAF
KBLH 012320Z 0200/0224 22015KT P6SM FEW250
     FM020800 20010KT P6SM SKC
     FM021200 27005KT P6SM SKC
     FM021700 22014KT P6SM SKC=

USA.gov is the U.S. government's official web portal to all federal, state and local government web resources and services.